• Join FlightAware (Why Join?)
  • Login
  • US Flag GB Flag 
07:02 EDT


 

Airport Tracker/Info


-or-


 

Live Flight TrackerFlight Track Log ✈ ASQ4633 ✈ 01-May-2013 ✈ KORD - KCLE

Flight Track Log - Related Links

Times and Time Zones

All times are in EDT time to prevent confusion due to time zone crossing. See the ASQ4633 flight status page for this flight to view local times or setup timezone preferences in your user account.

Time Position Orientation Groundspeed Altitude Reporting Facility
EDT Latitude Longitude Course Direction KTS MPH feet Rate Location/Type
14:37 41.9333 -87.9000 78° East 198 228 2,500  Level Chicago TRACON
14:38 41.9000 -87.8333 124° Southeast 238 274 4,600 2,340 Climbing Chicago TRACON
14:39 41.9000 -87.7500 90° East 259 298 6,800 2,220 Climbing Chicago TRACON
14:40 42.0344 -87.5384 83° East  Level FlightAware Approximate
14:40 41.9000 -87.6500 90° East 288 331 8,900  Level Chicago TRACON
14:41 42.0458 -87.4126 83° East  Level FlightAware Approximate
14:41 41.9500 -87.5333 60° Northeast 310 357 12,000  Level Chicago TRACON
14:42 42.0622 -87.2879 78° East  Level FlightAware Approximate
14:43 42.0814 -87.1625 78° East  Level FlightAware Approximate
14:43 42.0192 -87.3272 66° East 332 382 15,800  Level Chicago Center
14:45 42.0675 -87.1919 64° Northeast 336 387 18,700 2,160 Climbing Chicago Center
14:46 42.1064 -87.0783 65° Northeast 337 388 20,300 1,500 Climbing Chicago Center
14:47 42.1153 -86.9486 85° East 355 409 21,800 1,440 Climbing Chicago Center
14:48 42.1217 -86.8161 86° East 357 411 23,300 1,320 Climbing Chicago Center
14:49 42.1261 -86.6822 87° East 366 421 24,600 780 Climbing Chicago Center
14:50 42.1311 -86.5061 88° East 389 448 25,000 180 Climbing Chicago Center
14:51 42.1369 -86.3497 87° East 411 473 25,000  Level Chicago Center
14:52 42.1414 -86.1936 88° East 417 480 25,000  Level Chicago Center
14:53 42.1422 -86.0394 90° East 414 476 25,000  Level Chicago Center
14:54 42.1369 -85.8678 92° East 411 473 25,000  Level Chicago Center
14:55 42.1331 -85.7161 92° East 408 470 25,000  Level Chicago Center
14:56 42.1289 -85.5617 92° East 414 476 25,000  Level Chicago Center
14:57 42.1239 -85.4089 92° East 411 473 25,000  Level Chicago Center
14:57 42.1247 -85.3236 89° East 408 470 25,000  Level Cleveland Center
14:58 42.1186 -85.1692 93° East 408 470 25,000  Level Cleveland Center
14:59 42.1139 -85.0175 92° East 408 470 25,000  Level Cleveland Center
15:00 42.1094 -84.8603 92° East 408 470 25,000  Level Cleveland Center
15:01 42.1047 -84.7061 92° East 408 470 25,000  Level Cleveland Center
15:02 42.0978 -84.5517 93° East 408 470 25,000  Level Cleveland Center
15:03 42.0925 -84.3975 93° East 408 470 25,000 -300 Level Cleveland Center
15:04 42.0792 -84.2258 96° East 408 470 24,400 -540 Descending Cleveland Center
15:05 42.0739 -84.0689 93° East 408 470 24,000 -240 Descending Cleveland Center
15:06 42.0658 -83.9117 94° East 408 470 24,000  Level Cleveland Center
15:07 42.0597 -83.7603 93° East 408 470 24,000  Level Cleveland Center
15:08 42.0536 -83.6064 93° East 408 470 24,000 -60 Level Cleveland Center
15:09 42.0469 -83.4550 93° East 408 470 23,900 -540 Descending Cleveland Center
15:10 42.0319 -83.3033 98° East 408 470 23,000 -960 Descending Cleveland Center
15:11 42.0164 -83.1628 98° East 408 470 22,000 -1,080 Descending Cleveland Center
15:12 42.0031 -83.0142 97° East 408 470 20,900 -1,320 Descending Cleveland Center
15:13 41.9892 -82.8683 97° East 408 470 19,400 -1,740 Descending Cleveland Center
15:14 41.9753 -82.7311 98° East 397 457 17,500 -2,160 Descending Cleveland Center
15:15 41.9611 -82.5908 98° East 385 443 15,100 -2,220 Descending Cleveland Center
15:16 41.9300 -82.4617 108° East 367 422 13,100 -2,040 Descending Cleveland Center
15:17 41.8961 -82.3628 115° Southeast 361 415 11,700 -1,740 Descending Cleveland Center
15:17 41.8922 -82.3378 102° East 362 417 11,400 -1,680 Descending Cleveland Center
15:18 41.8725 -82.2786 114° Southeast 352 405 10,500 -1,320 Descending Cleveland Center
15:18 41.8544 -82.2194 112° Southeast 350 403 10,100 -420 Descending Cleveland Center
15:19 41.8158 -82.1489 126° Southeast 359 413 10,000 -120 Descending Cleveland Center
15:19 41.7786 -82.1172 148° Southeast 339 390 10,000  Level Cleveland Center
15:20 41.7253 -82.0717 147° Southeast 318 366 10,000  Level Cleveland Center
15:20 41.7128 -82.0600 145° Southeast 334 384 10,000 -720 Level Cleveland Center
15:21 41.6817 -82.0400 154° Southeast 271 312 9,600 -1,020 Descending Cleveland Center
15:21 41.6467 -82.0058 144° Southeast 303 349 9,000 -1,320 Descending Cleveland Center
15:22 41.5972 -81.9686 151° Southeast 272 313 7,900 -1,440 Descending Cleveland Center
15:22 41.5850 -81.9489 130° Southeast 279 321 7,600 -1,020 Descending Cleveland Center
15:23 41.5814 -81.9044 96° East 269 310 7,200 -600 Descending Cleveland Center
15:23 41.5797 -81.8489 92° East 249 287 7,000 -600 Descending Cleveland Center
15:24 41.5783 -81.8072 93° East 271 312 6,600 -1,440 Descending Cleveland Center
15:24 41.5789 -81.7517 89° East 261 300 5,600 -1,440 Descending Cleveland Center
15:25 41.5958 -81.7131 60° Northeast 265 305 5,200 -600 Descending Cleveland Center
15:25 41.5922 -81.6658 96° East 241 277 5,000 -540 Descending Cleveland Center
15:26 41.5400 -81.6678 182° South 254 292 4,500 -900 Descending Cleveland Center
15:27 41.4978 -81.7086 216° Southwest 244 281 3,700 -1,140 Descending Cleveland Center